sensor_id;sensor_type;location;lat;lon;timestamp;P1;durP1;ratioP1;P2;durP2;ratioP2
56321;SDS011;42227;6.376;-10.782;2022-09-03T00:01:14;37.13;;;21.13;;
56321;SDS011;42227;6.376;-10.782;2022-09-03T00:03:48;36.85;;;22.20;;
56321;SDS011;42227;6.376;-10.782;2022-09-03T00:06:22;21.27;;;14.57;;
56321;SDS011;42227;6.376;-10.782;2022-09-03T00:14:50;17.90;;;12.30;;
56321;SDS011;42227;6.376;-10.782;2022-09-03T00:17:38;13.95;;;11.27;;
56321;SDS011;42227;6.376;-10.782;2022-09-03T00:20:32;13.93;;;10.40;;
56321;SDS011;42227;6.376;-10.782;2022-09-03T00:23:04;18.35;;;9.68;;
56321;SDS011;42227;6.376;-10.782;2022-09-03T00:25:43;9.77;;;7.88;;
56321;SDS011;42227;6.376;-10.782;2022-09-03T00:31:15;12.20;;;7.65;;
56321;SDS011;42227;6.376;-10.782;2022-09-03T00:34:05;15.10;;;9.93;;
56321;SDS011;42227;6.376;-10.782;2022-09-03T00:36:44;12.05;;;8.77;;
56321;SDS011;42227;6.376;-10.782;2022-09-03T00:39:14;14.35;;;9.48;;
56321;SDS011;42227;6.376;-10.782;2022-09-03T00:42:00;13.63;;;11.43;;
56321;SDS011;42227;6.376;-10.782;2022-09-03T00:58:47;17.98;;;12.85;;
56321;SDS011;42227;6.376;-10.782;2022-09-03T01:09:39;18.52;;;12.07;;
56321;SDS011;42227;6.376;-10.782;2022-09-03T01:12:31;16.42;;;11.38;;
56321;SDS011;42227;6.376;-10.782;2022-09-03T01:31:40;14.10;;;10.15;;
56321;SDS011;42227;6.376;-10.782;2022-09-03T01:35:10;19.13;;;10.07;;
56321;SDS011;42227;6.376;-10.782;2022-09-03T01:37:43;19.42;;;13.45;;
56321;SDS011;42227;6.376;-10.782;2022-09-03T01:40:30;13.48;;;10.35;;
56321;SDS011;42227;6.376;-10.782;2022-09-03T01:43:03;14.07;;;11.02;;
56321;SDS011;42227;6.376;-10.782;2022-09-03T01:55:39;12.50;;;8.98;;
56321;SDS011;42227;6.376;-10.782;2022-09-03T02:04:21;11.00;;;7.63;;
56321;SDS011;42227;6.376;-10.782;2022-09-03T02:06:51;13.02;;;9.68;;
56321;SDS011;42227;6.376;-10.782;2022-09-03T02:09:20;11.77;;;8.90;;
56321;SDS011;42227;6.376;-10.782;2022-09-03T02:11:57;15.90;;;10.52;;
56321;SDS011;42227;6.376;-10.782;2022-09-03T02:14:34;12.20;;;8.63;;
56321;SDS011;42227;6.376;-10.782;2022-09-03T02:17:03;11.57;;;8.38;;
56321;SDS011;42227;6.376;-10.782;2022-09-03T02:19:33;12.48;;;9.63;;
56321;SDS011;42227;6.376;-10.782;2022-09-03T02:22:02;15.85;;;10.70;;
56321;SDS011;42227;6.376;-10.782;2022-09-03T02:24:31;12.85;;;9.70;;
56321;SDS011;42227;6.376;-10.782;2022-09-03T02:26:59;9.98;;;8.10;;
56321;SDS011;42227;6.376;-10.782;2022-09-03T02:29:28;10.52;;;8.45;;
56321;SDS011;42227;6.376;-10.782;2022-09-03T02:31:56;9.93;;;7.03;;
56321;SDS011;42227;6.376;-10.782;2022-09-03T02:34:25;10.38;;;7.38;;
56321;SDS011;42227;6.376;-10.782;2022-09-03T02:36:53;10.15;;;7.18;;
56321;SDS011;42227;6.376;-10.782;2022-09-03T02:39:21;8.35;;;6.45;;
56321;SDS011;42227;6.376;-10.782;2022-09-03T02:41:50;9.30;;;6.10;;
56321;SDS011;42227;6.376;-10.782;2022-09-03T02:44:24;7.85;;;5.50;;
56321;SDS011;42227;6.376;-10.782;2022-09-03T02:47:06;8.13;;;5.55;;
56321;SDS011;42227;6.376;-10.782;2022-09-03T02:49:35;9.13;;;5.93;;
56321;SDS011;42227;6.376;-10.782;2022-09-03T02:52:05;7.55;;;6.18;;
56321;SDS011;42227;6.376;-10.782;2022-09-03T02:54:37;8.98;;;6.22;;
56321;SDS011;42227;6.376;-10.782;2022-09-03T02:57:07;10.02;;;6.07;;
56321;SDS011;42227;6.376;-10.782;2022-09-03T02:59:36;7.45;;;5.82;;
56321;SDS011;42227;6.376;-10.782;2022-09-03T03:02:04;7.07;;;5.65;;
56321;SDS011;42227;6.376;-10.782;2022-09-03T03:04:33;9.23;;;5.43;;
56321;SDS011;42227;6.376;-10.782;2022-09-03T03:07:02;8.05;;;6.72;;
56321;SDS011;42227;6.376;-10.782;2022-09-03T03:09:30;9.52;;;6.63;;
56321;SDS011;42227;6.376;-10.782;2022-09-03T03:11:58;10.65;;;8.15;;
56321;SDS011;42227;6.376;-10.782;2022-09-03T03:14:27;10.98;;;8.52;;
56321;SDS011;42227;6.376;-10.782;2022-09-03T03:16:55;15.15;;;9.27;;
56321;SDS011;42227;6.376;-10.782;2022-09-03T03:19:23;12.48;;;9.45;;
56321;SDS011;42227;6.376;-10.782;2022-09-03T03:21:51;22.00;;;12.57;;
56321;SDS011;42227;6.376;-10.782;2022-09-03T03:24:20;20.98;;;14.02;;
56321;SDS011;42227;6.376;-10.782;2022-09-03T03:26:48;22.38;;;12.55;;
56321;SDS011;42227;6.376;-10.782;2022-09-03T03:29:16;17.08;;;14.25;;
56321;SDS011;42227;6.376;-10.782;2022-09-03T03:31:45;15.77;;;11.98;;
56321;SDS011;42227;6.376;-10.782;2022-09-03T03:34:13;15.32;;;12.15;;
56321;SDS011;42227;6.376;-10.782;2022-09-03T03:36:41;26.38;;;12.13;;
56321;SDS011;42227;6.376;-10.782;2022-09-03T03:39:10;15.68;;;10.50;;
56321;SDS011;42227;6.376;-10.782;2022-09-03T03:41:38;17.75;;;13.07;;
56321;SDS011;42227;6.376;-10.782;2022-09-03T03:44:07;17.00;;;12.07;;
56321;SDS011;42227;6.376;-10.782;2022-09-03T03:46:36;14.65;;;10.32;;
56321;SDS011;42227;6.376;-10.782;2022-09-03T03:49:06;15.57;;;11.52;;
56321;SDS011;42227;6.376;-10.782;2022-09-03T03:51:35;17.40;;;11.73;;
56321;SDS011;42227;6.376;-10.782;2022-09-03T03:54:04;12.65;;;8.38;;
56321;SDS011;42227;6.376;-10.782;2022-09-03T03:56:33;14.80;;;10.07;;
56321;SDS011;42227;6.376;-10.782;2022-09-03T03:59:02;13.98;;;9.52;;
56321;SDS011;42227;6.376;-10.782;2022-09-03T04:01:30;14.30;;;9.38;;
56321;SDS011;42227;6.376;-10.782;2022-09-03T04:03:58;11.57;;;9.35;;
56321;SDS011;42227;6.376;-10.782;2022-09-03T04:06:27;15.48;;;10.63;;
56321;SDS011;42227;6.376;-10.782;2022-09-03T04:08:55;12.00;;;9.82;;
56321;SDS011;42227;6.376;-10.782;2022-09-03T04:11:24;12.40;;;8.23;;
56321;SDS011;42227;6.376;-10.782;2022-09-03T04:13:52;15.10;;;11.05;;
56321;SDS011;42227;6.376;-10.782;2022-09-03T04:16:22;12.60;;;10.43;;
56321;SDS011;42227;6.376;-10.782;2022-09-03T04:18:52;13.25;;;10.32;;
56321;SDS011;42227;6.376;-10.782;2022-09-03T04:21:23;11.07;;;9.13;;
56321;SDS011;42227;6.376;-10.782;2022-09-03T04:23:54;11.63;;;10.10;;
56321;SDS011;42227;6.376;-10.782;2022-09-03T04:26:25;15.05;;;11.82;;
56321;SDS011;42227;6.376;-10.782;2022-09-03T04:29:07;17.42;;;12.05;;
56321;SDS011;42227;6.376;-10.782;2022-09-03T04:31:36;20.80;;;13.63;;
56321;SDS011;42227;6.376;-10.782;2022-09-03T04:34:05;25.30;;;18.77;;
56321;SDS011;42227;6.376;-10.782;2022-09-03T04:36:34;25.02;;;17.50;;
56321;SDS011;42227;6.376;-10.782;2022-09-03T04:39:02;17.35;;;15.43;;
56321;SDS011;42227;6.376;-10.782;2022-09-03T04:41:30;19.13;;;15.02;;
56321;SDS011;42227;6.376;-10.782;2022-09-03T04:43:59;15.45;;;10.35;;
56321;SDS011;42227;6.376;-10.782;2022-09-03T04:46:27;12.77;;;11.27;;
56321;SDS011;42227;6.376;-10.782;2022-09-03T04:48:56;14.73;;;10.88;;
56321;SDS011;42227;6.376;-10.782;2022-09-03T04:51:25;10.48;;;9.15;;
56321;SDS011;42227;6.376;-10.782;2022-09-03T04:53:58;10.18;;;7.53;;
56321;SDS011;42227;6.376;-10.782;2022-09-03T04:56:32;12.43;;;8.70;;
56321;SDS011;42227;6.376;-10.782;2022-09-03T04:59:05;14.30;;;8.60;;
56321;SDS011;42227;6.376;-10.782;2022-09-03T05:01:36;11.75;;;7.78;;
56321;SDS011;42227;6.376;-10.782;2022-09-03T05:04:06;10.30;;;8.68;;
56321;SDS011;42227;6.376;-10.782;2022-09-03T05:06:35;18.02;;;10.50;;
56321;SDS011;42227;6.376;-10.782;2022-09-03T05:09:04;20.13;;;12.65;;
56321;SDS011;42227;6.376;-10.782;2022-09-03T05:11:32;14.15;;;11.57;;
56321;SDS011;42227;6.376;-10.782;2022-09-03T05:14:01;15.10;;;9.65;;
56321;SDS011;42227;6.376;-10.782;2022-09-03T05:16:29;16.20;;;13.05;;
56321;SDS011;42227;6.376;-10.782;2022-09-03T05:18:58;21.77;;;16.15;;
56321;SDS011;42227;6.376;-10.782;2022-09-03T05:21:27;26.05;;;17.58;;
56321;SDS011;42227;6.376;-10.782;2022-09-03T05:23:56;21.17;;;16.20;;
56321;SDS011;42227;6.376;-10.782;2022-09-03T05:26:26;26.92;;;13.88;;
56321;SDS011;42227;6.376;-10.782;2022-09-03T05:28:57;12.90;;;11.10;;
56321;SDS011;42227;6.376;-10.782;2022-09-03T05:31:27;13.02;;;7.82;;
56321;SDS011;42227;6.376;-10.782;2022-09-03T05:33:57;10.27;;;8.52;;
56321;SDS011;42227;6.376;-10.782;2022-09-03T05:36:29;12.20;;;8.60;;
56321;SDS011;42227;6.376;-10.782;2022-09-03T05:38:58;23.45;;;10.52;;
56321;SDS011;42227;6.376;-10.782;2022-09-03T05:41:27;11.07;;;8.60;;
56321;SDS011;42227;6.376;-10.782;2022-09-03T05:43:56;14.27;;;7.22;;
56321;SDS011;42227;6.376;-10.782;2022-09-03T05:46:25;11.20;;;8.43;;
56321;SDS011;42227;6.376;-10.782;2022-09-03T05:48:55;11.05;;;9.70;;
56321;SDS011;42227;6.376;-10.782;2022-09-03T05:51:25;13.73;;;8.32;;
56321;SDS011;42227;6.376;-10.782;2022-09-03T05:53:54;12.85;;;9.55;;
56321;SDS011;42227;6.376;-10.782;2022-09-03T05:56:23;13.18;;;11.68;;
56321;SDS011;42227;6.376;-10.782;2022-09-03T05:58:53;21.95;;;11.27;;
56321;SDS011;42227;6.376;-10.782;2022-09-03T06:01:27;20.05;;;10.70;;
56321;SDS011;42227;6.376;-10.782;2022-09-03T06:04:05;15.77;;;11.43;;
56321;SDS011;42227;6.376;-10.782;2022-09-03T06:06:38;20.70;;;12.23;;
56321;SDS011;42227;6.376;-10.782;2022-09-03T06:09:09;15.50;;;11.77;;
56321;SDS011;42227;6.376;-10.782;2022-09-03T06:11:39;15.70;;;11.98;;
56321;SDS011;42227;6.376;-10.782;2022-09-03T06:14:09;10.63;;;9.23;;
56321;SDS011;42227;6.376;-10.782;2022-09-03T06:16:40;20.45;;;9.98;;
56321;SDS011;42227;6.376;-10.782;2022-09-03T06:19:10;33.30;;;16.47;;
56321;SDS011;42227;6.376;-10.782;2022-09-03T06:21:41;24.85;;;18.45;;
56321;SDS011;42227;6.376;-10.782;2022-09-03T06:24:12;24.42;;;19.75;;
56321;SDS011;42227;6.376;-10.782;2022-09-03T06:26:40;25.15;;;21.95;;
56321;SDS011;42227;6.376;-10.782;2022-09-03T06:29:09;29.42;;;25.38;;
56321;SDS011;42227;6.376;-10.782;2022-09-03T06:31:38;48.45;;;37.95;;
56321;SDS011;42227;6.376;-10.782;2022-09-03T06:34:06;54.67;;;35.03;;
56321;SDS011;42227;6.376;-10.782;2022-09-03T06:36:34;34.10;;;25.80;;
56321;SDS011;42227;6.376;-10.782;2022-09-03T06:39:03;42.95;;;21.27;;
56321;SDS011;42227;6.376;-10.782;2022-09-03T06:41:31;21.85;;;17.27;;
56321;SDS011;42227;6.376;-10.782;2022-09-03T06:44:00;20.70;;;17.50;;
56321;SDS011;42227;6.376;-10.782;2022-09-03T06:46:34;37.67;;;22.38;;
56321;SDS011;42227;6.376;-10.782;2022-09-03T06:49:02;37.55;;;26.70;;
56321;SDS011;42227;6.376;-10.782;2022-09-03T06:51:31;46.30;;;31.13;;
56321;SDS011;42227;6.376;-10.782;2022-09-03T06:54:00;52.47;;;31.38;;
56321;SDS011;42227;6.376;-10.782;2022-09-03T06:56:34;37.85;;;26.60;;
56321;SDS011;42227;6.376;-10.782;2022-09-03T06:59:07;37.72;;;22.75;;
56321;SDS011;42227;6.376;-10.782;2022-09-03T07:01:40;32.80;;;22.92;;
56321;SDS011;42227;6.376;-10.782;2022-09-03T07:04:13;43.25;;;29.95;;
56321;SDS011;42227;6.376;-10.782;2022-09-03T07:06:42;36.35;;;26.73;;
56321;SDS011;42227;6.376;-10.782;2022-09-03T07:09:10;50.85;;;23.90;;
56321;SDS011;42227;6.376;-10.782;2022-09-03T07:11:39;43.95;;;19.25;;
56321;SDS011;42227;6.376;-10.782;2022-09-03T07:14:08;33.92;;;17.85;;
56321;SDS011;42227;6.376;-10.782;2022-09-03T07:16:36;36.55;;;21.05;;
56321;SDS011;42227;6.376;-10.782;2022-09-03T07:19:04;30.10;;;20.45;;
56321;SDS011;42227;6.376;-10.782;2022-09-03T07:21:33;28.88;;;20.05;;
56321;SDS011;42227;6.376;-10.782;2022-09-03T07:24:03;22.75;;;19.60;;
56321;SDS011;42227;6.376;-10.782;2022-09-03T07:26:33;22.42;;;15.65;;
56321;SDS011;42227;6.376;-10.782;2022-09-03T07:29:03;18.83;;;12.70;;
56321;SDS011;42227;6.376;-10.782;2022-09-03T07:31:35;16.20;;;12.82;;
56321;SDS011;42227;6.376;-10.782;2022-09-03T07:34:10;18.45;;;13.00;;
56321;SDS011;42227;6.376;-10.782;2022-09-03T07:36:40;22.33;;;15.93;;
56321;SDS011;42227;6.376;-10.782;2022-09-03T07:39:10;18.35;;;16.42;;
56321;SDS011;42227;6.376;-10.782;2022-09-03T07:41:40;27.55;;;21.55;;
56321;SDS011;42227;6.376;-10.782;2022-09-03T07:44:09;29.58;;;17.70;;
56321;SDS011;42227;6.376;-10.782;2022-09-03T07:46:42;20.65;;;13.95;;
56321;SDS011;42227;6.376;-10.782;2022-09-03T07:49:10;20.45;;;12.15;;
56321;SDS011;42227;6.376;-10.782;2022-09-03T07:51:38;16.48;;;10.82;;
56321;SDS011;42227;6.376;-10.782;2022-09-03T07:54:08;15.63;;;13.77;;
56321;SDS011;42227;6.376;-10.782;2022-09-03T07:56:38;22.27;;;14.60;;
56321;SDS011;42227;6.376;-10.782;2022-09-03T07:59:07;14.48;;;12.10;;
56321;SDS011;42227;6.376;-10.782;2022-09-03T08:01:35;14.07;;;10.38;;
56321;SDS011;42227;6.376;-10.782;2022-09-03T08:04:07;16.65;;;11.85;;
56321;SDS011;42227;6.376;-10.782;2022-09-03T08:06:36;14.50;;;10.95;;
56321;SDS011;42227;6.376;-10.782;2022-09-03T08:09:06;11.65;;;8.27;;
56321;SDS011;42227;6.376;-10.782;2022-09-03T08:11:37;12.13;;;9.07;;
56321;SDS011;42227;6.376;-10.782;2022-09-03T08:14:08;14.63;;;9.67;;
56321;SDS011;42227;6.376;-10.782;2022-09-03T08:16:44;15.48;;;10.77;;
56321;SDS011;42227;6.376;-10.782;2022-09-03T08:19:13;14.82;;;11.25;;
56321;SDS011;42227;6.376;-10.782;2022-09-03T08:21:43;15.73;;;8.80;;
56321;SDS011;42227;6.376;-10.782;2022-09-03T08:24:13;13.68;;;10.57;;
56321;SDS011;42227;6.376;-10.782;2022-09-03T08:26:42;12.80;;;10.57;;
56321;SDS011;42227;6.376;-10.782;2022-09-03T08:29:18;15.90;;;12.63;;
56321;SDS011;42227;6.376;-10.782;2022-09-03T08:31:47;15.77;;;12.23;;
56321;SDS011;42227;6.376;-10.782;2022-09-03T08:34:16;12.68;;;9.55;;
56321;SDS011;42227;6.376;-10.782;2022-09-03T08:36:45;13.13;;;10.55;;
56321;SDS011;42227;6.376;-10.782;2022-09-03T08:39:13;11.60;;;9.30;;
56321;SDS011;42227;6.376;-10.782;2022-09-03T08:58:30;16.25;;;8.63;;
56321;SDS011;42227;6.376;-10.782;2022-09-03T09:01:06;13.30;;;7.45;;
56321;SDS011;42227;6.376;-10.782;2022-09-03T09:18:29;11.88;;;8.05;;
56321;SDS011;42227;6.376;-10.782;2022-09-03T09:25:48;11.63;;;8.48;;
56321;SDS011;42227;6.376;-10.782;2022-09-03T09:28:18;9.93;;;8.80;;
56321;SDS011;42227;6.376;-10.782;2022-09-03T09:33:21;12.52;;;10.77;;
56321;SDS011;42227;6.376;-10.782;2022-09-03T09:35:50;12.32;;;8.98;;
56321;SDS011;42227;6.376;-10.782;2022-09-03T09:38:35;11.10;;;8.52;;
56321;SDS011;42227;6.376;-10.782;2022-09-03T09:41:22;10.15;;;8.70;;
56321;SDS011;42227;6.376;-10.782;2022-09-03T09:43:59;8.63;;;7.00;;
56321;SDS011;42227;6.376;-10.782;2022-09-03T09:46:37;7.72;;;5.53;;
56321;SDS011;42227;6.376;-10.782;2022-09-03T09:49:07;7.15;;;5.68;;
56321;SDS011;42227;6.376;-10.782;2022-09-03T09:52:06;8.77;;;4.20;;
56321;SDS011;42227;6.376;-10.782;2022-09-03T09:54:38;12.57;;;6.47;;
56321;SDS011;42227;6.376;-10.782;2022-09-03T09:57:21;6.22;;;5.03;;
56321;SDS011;42227;6.376;-10.782;2022-09-03T10:00:03;10.05;;;6.20;;
56321;SDS011;42227;6.376;-10.782;2022-09-03T10:02:37;9.45;;;5.18;;
56321;SDS011;42227;6.376;-10.782;2022-09-03T10:05:25;6.80;;;4.82;;
56321;SDS011;42227;6.376;-10.782;2022-09-03T10:07:57;5.88;;;5.00;;
56321;SDS011;42227;6.376;-10.782;2022-09-03T10:10:35;7.30;;;4.90;;
56321;SDS011;42227;6.376;-10.782;2022-09-03T10:13:13;10.10;;;6.57;;
56321;SDS011;42227;6.376;-10.782;2022-09-03T10:15:50;6.15;;;5.30;;
56321;SDS011;42227;6.376;-10.782;2022-09-03T10:21:29;7.85;;;6.75;;
56321;SDS011;42227;6.376;-10.782;2022-09-03T10:27:08;9.20;;;6.65;;
56321;SDS011;42227;6.376;-10.782;2022-09-03T10:29:38;9.60;;;6.45;;
56321;SDS011;42227;6.376;-10.782;2022-09-03T10:35:24;7.25;;;5.57;;
56321;SDS011;42227;6.376;-10.782;2022-09-03T10:44:14;6.00;;;5.13;;
56321;SDS011;42227;6.376;-10.782;2022-09-03T10:55:33;18.60;;;6.15;;
56321;SDS011;42227;6.376;-10.782;2022-09-03T11:00:51;8.20;;;5.67;;
56321;SDS011;42227;6.376;-10.782;2022-09-03T11:03:42;7.28;;;5.90;;
56321;SDS011;42227;6.376;-10.782;2022-09-03T11:06:14;5.93;;;4.80;;
56321;SDS011;42227;6.376;-10.782;2022-09-03T11:08:51;7.38;;;4.80;;
56321;SDS011;42227;6.376;-10.782;2022-09-03T11:11:33;7.45;;;3.83;;
56321;SDS011;42227;6.376;-10.782;2022-09-03T11:17:14;8.20;;;4.57;;
56321;SDS011;42227;6.376;-10.782;2022-09-03T11:22:38;4.35;;;3.08;;
56321;SDS011;42227;6.376;-10.782;2022-09-03T11:25:08;3.92;;;3.33;;
56321;SDS011;42227;6.376;-10.782;2022-09-03T11:30:21;5.57;;;3.45;;
56321;SDS011;42227;6.376;-10.782;2022-09-03T11:32:55;6.65;;;4.68;;
56321;SDS011;42227;6.376;-10.782;2022-09-03T11:38:04;8.68;;;5.65;;
56321;SDS011;42227;6.376;-10.782;2022-09-03T11:40:58;9.20;;;6.15;;
56321;SDS011;42227;6.376;-10.782;2022-09-03T11:43:31;11.82;;;5.40;;
56321;SDS011;42227;6.376;-10.782;2022-09-03T11:46:01;7.47;;;4.63;;
56321;SDS011;42227;6.376;-10.782;2022-09-03T11:48:35;6.68;;;5.70;;
56321;SDS011;42227;6.376;-10.782;2022-09-03T11:53:56;5.70;;;4.50;;
56321;SDS011;42227;6.376;-10.782;2022-09-03T11:56:46;8.55;;;4.85;;
56321;SDS011;42227;6.376;-10.782;2022-09-03T11:59:24;6.13;;;4.20;;
56321;SDS011;42227;6.376;-10.782;2022-09-03T12:04:34;10.40;;;5.80;;
56321;SDS011;42227;6.376;-10.782;2022-09-03T12:07:19;10.13;;;6.05;;
56321;SDS011;42227;6.376;-10.782;2022-09-03T12:13:17;6.63;;;5.55;;
56321;SDS011;42227;6.376;-10.782;2022-09-03T12:18:53;7.13;;;4.93;;
56321;SDS011;42227;6.376;-10.782;2022-09-03T12:21:26;7.82;;;5.80;;
56321;SDS011;42227;6.376;-10.782;2022-09-03T12:24:00;6.75;;;4.70;;
56321;SDS011;42227;6.376;-10.782;2022-09-03T12:26:29;7.55;;;4.88;;
56321;SDS011;42227;6.376;-10.782;2022-09-03T12:29:05;6.78;;;5.28;;
56321;SDS011;42227;6.376;-10.782;2022-09-03T12:31:43;9.52;;;5.32;;
56321;SDS011;42227;6.376;-10.782;2022-09-03T12:34:15;8.95;;;5.63;;
56321;SDS011;42227;6.376;-10.782;2022-09-03T12:36:47;8.43;;;5.15;;
56321;SDS011;42227;6.376;-10.782;2022-09-03T12:39:24;13.88;;;6.15;;
56321;SDS011;42227;6.376;-10.782;2022-09-03T12:42:17;6.50;;;4.63;;
56321;SDS011;42227;6.376;-10.782;2022-09-03T12:44:52;15.73;;;4.75;;
56321;SDS011;42227;6.376;-10.782;2022-09-03T12:47:22;8.40;;;5.38;;
56321;SDS011;42227;6.376;-10.782;2022-09-03T12:50:04;13.50;;;5.70;;
56321;SDS011;42227;6.376;-10.782;2022-09-03T12:52:38;12.13;;;5.22;;
56321;SDS011;42227;6.376;-10.782;2022-09-03T13:00:44;8.10;;;5.50;;
56321;SDS011;42227;6.376;-10.782;2022-09-03T13:03:21;9.55;;;4.82;;
56321;SDS011;42227;6.376;-10.782;2022-09-03T13:06:00;9.88;;;5.10;;
56321;SDS011;42227;6.376;-10.782;2022-09-03T13:08:43;5.68;;;4.38;;
56321;SDS011;42227;6.376;-10.782;2022-09-03T13:11:24;9.30;;;6.13;;
56321;SDS011;42227;6.376;-10.782;2022-09-03T13:16:45;8.88;;;4.45;;
56321;SDS011;42227;6.376;-10.782;2022-09-03T13:22:36;6.20;;;5.53;;
56321;SDS011;42227;6.376;-10.782;2022-09-03T13:31:01;13.95;;;4.35;;
56321;SDS011;42227;6.376;-10.782;2022-09-03T13:33:50;7.10;;;4.32;;
56321;SDS011;42227;6.376;-10.782;2022-09-03T13:36:27;8.50;;;4.68;;
56321;SDS011;42227;6.376;-10.782;2022-09-03T13:39:27;7.65;;;4.60;;
56321;SDS011;42227;6.376;-10.782;2022-09-03T13:50:09;8.77;;;5.57;;
56321;SDS011;42227;6.376;-10.782;2022-09-03T13:52:58;8.30;;;4.80;;
56321;SDS011;42227;6.376;-10.782;2022-09-03T13:58:59;6.32;;;4.95;;
56321;SDS011;42227;6.376;-10.782;2022-09-03T14:01:14;11.75;;;5.40;;
56321;SDS011;42227;6.376;-10.782;2022-09-03T14:04:09;4.97;;;4.45;;
56321;SDS011;42227;6.376;-10.782;2022-09-03T14:06:54;7.43;;;4.65;;
56321;SDS011;42227;6.376;-10.782;2022-09-03T14:12:46;9.70;;;5.30;;
56321;SDS011;42227;6.376;-10.782;2022-09-03T14:15:45;13.70;;;5.30;;
56321;SDS011;42227;6.376;-10.782;2022-09-03T14:27:35;5.53;;;3.97;;
56321;SDS011;42227;6.376;-10.782;2022-09-03T14:30:04;9.95;;;4.68;;
56321;SDS011;42227;6.376;-10.782;2022-09-03T15:01:09;5.80;;;4.97;;
56321;SDS011;42227;6.376;-10.782;2022-09-03T15:12:18;7.60;;;5.60;;
56321;SDS011;42227;6.376;-10.782;2022-09-03T15:23:48;13.40;;;10.07;;
56321;SDS011;42227;6.376;-10.782;2022-09-03T15:29:16;8.88;;;7.38;;
56321;SDS011;42227;6.376;-10.782;2022-09-03T15:31:52;16.33;;;9.10;;
56321;SDS011;42227;6.376;-10.782;2022-09-03T15:37:07;15.70;;;11.73;;
56321;SDS011;42227;6.376;-10.782;2022-09-03T15:39:52;9.35;;;6.43;;
56321;SDS011;42227;6.376;-10.782;2022-09-03T15:42:48;19.30;;;6.45;;
56321;SDS011;42227;6.376;-10.782;2022-09-03T15:48:25;15.57;;;10.80;;
56321;SDS011;42227;6.376;-10.782;2022-09-03T15:51:19;13.85;;;9.50;;
56321;SDS011;42227;6.376;-10.782;2022-09-03T15:53:57;13.73;;;8.60;;
56321;SDS011;42227;6.376;-10.782;2022-09-03T15:59:20;10.77;;;5.55;;
56321;SDS011;42227;6.376;-10.782;2022-09-03T16:13:43;10.10;;;6.40;;
56321;SDS011;42227;6.376;-10.782;2022-09-03T16:19:51;9.73;;;5.88;;
56321;SDS011;42227;6.376;-10.782;2022-09-03T16:22:28;11.50;;;6.82;;
56321;SDS011;42227;6.376;-10.782;2022-09-03T16:27:49;7.72;;;5.35;;
56321;SDS011;42227;6.376;-10.782;2022-09-03T16:30:50;11.85;;;7.75;;
56321;SDS011;42227;6.376;-10.782;2022-09-03T16:36:33;9.20;;;5.32;;
56321;SDS011;42227;6.376;-10.782;2022-09-03T16:39:57;26.25;;;7.07;;
56321;SDS011;42227;6.376;-10.782;2022-09-03T16:45:08;8.38;;;4.80;;
56321;SDS011;42227;6.376;-10.782;2022-09-03T16:48:08;7.68;;;4.63;;
56321;SDS011;42227;6.376;-10.782;2022-09-03T17:05:14;8.32;;;5.68;;
56321;SDS011;42227;6.376;-10.782;2022-09-03T17:08:07;7.78;;;4.65;;
56321;SDS011;42227;6.376;-10.782;2022-09-03T17:24:34;13.02;;;6.47;;
56321;SDS011;42227;6.376;-10.782;2022-09-03T17:27:24;10.20;;;6.53;;
56321;SDS011;42227;6.376;-10.782;2022-09-03T17:30:03;10.25;;;5.57;;
56321;SDS011;42227;6.376;-10.782;2022-09-03T17:40:35;7.05;;;5.75;;
56321;SDS011;42227;6.376;-10.782;2022-09-03T17:43:41;11.68;;;6.93;;
56321;SDS011;42227;6.376;-10.782;2022-09-03T17:49:25;11.00;;;4.43;;
56321;SDS011;42227;6.376;-10.782;2022-09-03T17:55:12;12.85;;;5.82;;
56321;SDS011;42227;6.376;-10.782;2022-09-03T17:57:49;10.38;;;5.75;;
56321;SDS011;42227;6.376;-10.782;2022-09-03T18:01:25;8.30;;;5.85;;
56321;SDS011;42227;6.376;-10.782;2022-09-03T18:03:32;21.80;;;7.80;;
56321;SDS011;42227;6.376;-10.782;2022-09-03T18:06:23;18.38;;;6.90;;
56321;SDS011;42227;6.376;-10.782;2022-09-03T18:12:20;10.23;;;5.53;;
56321;SDS011;42227;6.376;-10.782;2022-09-03T18:15:31;7.50;;;4.80;;
56321;SDS011;42227;6.376;-10.782;2022-09-03T18:18:17;11.00;;;6.07;;
56321;SDS011;42227;6.376;-10.782;2022-09-03T18:20:58;17.40;;;5.70;;
56321;SDS011;42227;6.376;-10.782;2022-09-03T18:26:24;11.30;;;7.30;;
56321;SDS011;42227;6.376;-10.782;2022-09-03T18:31:29;9.75;;;6.18;;
56321;SDS011;42227;6.376;-10.782;2022-09-03T18:33:57;15.52;;;5.70;;
56321;SDS011;42227;6.376;-10.782;2022-09-03T18:36:25;16.83;;;6.38;;
56321;SDS011;42227;6.376;-10.782;2022-09-03T18:38:56;7.25;;;5.63;;
56321;SDS011;42227;6.376;-10.782;2022-09-03T18:41:46;17.73;;;8.25;;
56321;SDS011;42227;6.376;-10.782;2022-09-03T18:50:17;12.20;;;6.22;;
56321;SDS011;42227;6.376;-10.782;2022-09-03T18:53:08;14.35;;;5.75;;
56321;SDS011;42227;6.376;-10.782;2022-09-03T19:01:35;17.17;;;8.82;;
56321;SDS011;42227;6.376;-10.782;2022-09-03T19:04:14;17.00;;;12.50;;
56321;SDS011;42227;6.376;-10.782;2022-09-03T19:10:15;19.35;;;14.38;;
56321;SDS011;42227;6.376;-10.782;2022-09-03T19:16:20;15.40;;;9.90;;
56321;SDS011;42227;6.376;-10.782;2022-09-03T19:21:48;9.88;;;7.45;;
56321;SDS011;42227;6.376;-10.782;2022-09-03T19:24:27;17.52;;;12.00;;
56321;SDS011;42227;6.376;-10.782;2022-09-03T19:29:42;19.27;;;14.03;;
56321;SDS011;42227;6.376;-10.782;2022-09-03T19:32:18;16.50;;;11.15;;
56321;SDS011;42227;6.376;-10.782;2022-09-03T19:52:22;8.68;;;5.88;;
56321;SDS011;42227;6.376;-10.782;2022-09-03T19:54:58;14.52;;;7.90;;
56321;SDS011;42227;6.376;-10.782;2022-09-03T19:57:27;19.60;;;7.25;;
56321;SDS011;42227;6.376;-10.782;2022-09-03T19:59:57;15.05;;;7.45;;
56321;SDS011;42227;6.376;-10.782;2022-09-03T20:02:27;9.95;;;6.50;;
56321;SDS011;42227;6.376;-10.782;2022-09-03T20:04:57;9.10;;;6.90;;
56321;SDS011;42227;6.376;-10.782;2022-09-03T20:07:27;12.20;;;7.70;;
56321;SDS011;42227;6.376;-10.782;2022-09-03T20:09:56;17.48;;;8.45;;
56321;SDS011;42227;6.376;-10.782;2022-09-03T20:12:32;13.77;;;8.70;;
56321;SDS011;42227;6.376;-10.782;2022-09-03T20:15:04;13.30;;;7.43;;
56321;SDS011;42227;6.376;-10.782;2022-09-03T20:20:09;16.20;;;8.77;;
56321;SDS011;42227;6.376;-10.782;2022-09-03T20:22:58;14.85;;;8.48;;
56321;SDS011;42227;6.376;-10.782;2022-09-03T20:28:25;15.93;;;7.63;;
56321;SDS011;42227;6.376;-10.782;2022-09-03T20:31:00;9.85;;;6.88;;
56321;SDS011;42227;6.376;-10.782;2022-09-03T20:40:15;12.63;;;7.10;;
56321;SDS011;42227;6.376;-10.782;2022-09-03T20:43:12;14.15;;;6.97;;
56321;SDS011;42227;6.376;-10.782;2022-09-03T20:51:33;13.10;;;6.95;;
56321;SDS011;42227;6.376;-10.782;2022-09-03T21:00:10;6.60;;;5.20;;
56321;SDS011;42227;6.376;-10.782;2022-09-03T21:02:48;14.13;;;7.20;;
56321;SDS011;42227;6.376;-10.782;2022-09-03T21:22:39;11.90;;;7.50;;
56321;SDS011;42227;6.376;-10.782;2022-09-03T21:25:22;8.95;;;6.72;;
56321;SDS011;42227;6.376;-10.782;2022-09-03T21:27:58;11.27;;;6.88;;
56321;SDS011;42227;6.376;-10.782;2022-09-03T21:30:31;8.60;;;6.68;;
56321;SDS011;42227;6.376;-10.782;2022-09-03T21:33:10;12.43;;;6.45;;
56321;SDS011;42227;6.376;-10.782;2022-09-03T21:36:23;10.20;;;5.60;;
56321;SDS011;42227;6.376;-10.782;2022-09-03T21:38:45;10.70;;;6.80;;
56321;SDS011;42227;6.376;-10.782;2022-09-03T21:44:02;9.63;;;6.40;;
56321;SDS011;42227;6.376;-10.782;2022-09-03T21:46:52;9.18;;;7.72;;
56321;SDS011;42227;6.376;-10.782;2022-09-03T21:49:31;27.55;;;24.48;;
56321;SDS011;42227;6.376;-10.782;2022-09-03T21:52:07;14.48;;;10.75;;
56321;SDS011;42227;6.376;-10.782;2022-09-03T21:54:41;16.55;;;8.45;;
56321;SDS011;42227;6.376;-10.782;2022-09-03T22:00:15;12.02;;;6.65;;